Погода Сертеяна неделю

Смоленская область, Россия

24 - 30 мая
  • 24мая
    Сегодня
    +6°
    +23°
    Ясно и безоблачно
    ВремяПогодаТемператураВлажностьДавлениеВетер, м/сВероятность осадков
    00:00Ясно и безоблачно+12°C54 %756 мм1.1 м/с2 %
    03:00Ясно и безоблачно+9°C58 %757 мм0.8 м/с2 %
    06:00Ясно и безоблачно+9°C63 %758 мм1.0 м/с2 %
    09:00Ясно и безоблачно+17°C49 %759 мм1.8 м/с2 %
    12:00Ясно и безоблачно+21°C34 %759 мм2.5 м/с2 %
    15:00Ясно и безоблачно+22°C29 %758 мм2.2 м/с2 %
    18:00Ясно и безоблачно+22°C30 %757 мм1.9 м/с2 %
    21:00Ясно и безоблачно+15°C49 %757 мм0.4 м/с2 %
  • 25мая
    Суббота
    +7°
    +25°
    Ясно и безоблачно
    ВремяПогодаТемператураВлажностьДавлениеВетер, м/сВероятность осадков
    00:00Ясно и безоблачно+9°C49 %757 мм0.7 м/с2 %
    03:00Ясно и безоблачно+7°C62 %757 мм0.3 м/с2 %
    06:00Ясно и безоблачно+8°C70 %757 мм0.7 м/с2 %
    09:00Ясно и безоблачно+17°C58 %757 мм1.1 м/с2 %
    12:00Ясно и безоблачно+23°C44 %757 мм1.9 м/с2 %
    15:00Ясно и безоблачно+24°C39 %756 мм1.7 м/с2 %
    18:00Ясно и безоблачно+25°C41 %754 мм1.5 м/с2 %
    21:00Ясно и безоблачно+17°C69 %754 мм0.2 м/с2 %
  • 26мая
    Воскресенье
    +10°
    +27°
    Небольшая облачность
    ВремяПогодаТемператураВлажностьДавлениеВетер, м/сВероятность осадков
    00:00Ясно и безоблачно+11°C79 %754 мм0.2 м/с2 %
    03:00Ясно и безоблачно+9°C87 %754 мм0.0 м/с2 %
    06:00Ясно и безоблачно+10°C85 %754 мм0.2 м/с2 %
    09:00Ясно и безоблачно+20°C62 %754 мм0.3 м/с2 %
    12:00Небольшая облачность+26°C40 %754 мм1.4 м/с2 %
    15:00Небольшая облачность+26°C34 %754 мм1.5 м/с5 %
    18:00Практически безоблачно+27°C37 %753 мм1.5 м/с15 %
    21:00Ясно и безоблачно+19°C62 %754 мм0.4 м/с5 %
  • 27мая
    Понедельник
    +8°
    +25°
    Практически безоблачно
    ВремяПогодаТемператураВлажностьДавлениеВетер, м/сВероятность осадков
    00:00Практически безоблачно+14°C82 %754 мм0.7 м/с2 %
    03:00Ясно и безоблачно+11°C92 %754 мм0.6 м/с2 %
    06:00Ясно и безоблачно+12°C92 %755 мм0.7 м/с2 %
    09:00Ясно и безоблачно+20°C75 %756 мм1.0 м/с2 %
    12:00Практически безоблачно+24°C61 %756 мм1.5 м/с8 %
    15:00Практически безоблачно+25°C48 %755 мм1.3 м/с14 %
    18:00Ясно и безоблачно+25°C45 %755 мм1.4 м/с21 %
    21:00Ясно и безоблачно+18°C56 %754 мм0.5 м/с3 %
  • 28мая
    Вторник
    +7°
    +25°
    Ясно и безоблачно
    ВремяПогодаТемператураВлажностьДавлениеВетер, м/сВероятность осадков
    00:00Ясно и безоблачно+13°C60 %755 мм0.7 м/с2 %
    03:00Ясно и безоблачно+9°C63 %755 мм0.4 м/с2 %
    06:00Ясно и безоблачно+11°C66 %755 мм0.6 м/с2 %
    09:00Ясно и безоблачно+19°C56 %756 мм1.1 м/с2 %
    12:00Ясно и безоблачно+24°C41 %755 мм2.0 м/с5 %
    15:00Ясно и безоблачно+25°C34 %755 мм1.5 м/с8 %
    18:00Ясно и безоблачно+25°C35 %754 мм1.1 м/с9 %
    21:00Ясно и безоблачно+18°C56 %753 мм0.1 м/с6 %
Мы используем cookies
Соглашаюсь